Time;durP1;ratioP1;P1;durP2;ratioP2;P2;SDS_P1;SDS_P2;PMS_P1;PMS_P2;Temp;Humidity;BMP_temperature;BMP_pressure;BME280_temperature;BME280_humidity;BME280_pressure;Samples;Min_cycle;Max_cycle;Signal;HPM_P1;HPM_P2
2022/07/28 00:01:30;;;;;;;2.97;1.10;;;10.70;99.90;;;;;;5033688;28;20399;-70
2022/07/28 00:03:56;;;;;;;1.83;0.95;;;10.70;99.90;;;;;;5030335;28;20068;-70
2022/07/28 00:06:21;;;;;;;2.17;0.90;;;10.70;99.90;;;;;;5032336;28;20045;-70
2022/07/28 00:08:47;;;;;;;1.50;0.90;;;10.70;99.90;;;;;;5030454;28;20037;-70
2022/07/28 00:11:13;;;;;;;2.13;1.30;;;10.70;99.90;;;;;;5012072;28;20116;-71
2022/07/28 00:13:38;;;;;;;2.42;0.93;;;10.60;99.90;;;;;;5030751;28;20075;-70
2022/07/28 00:16:05;;;;;;;1.92;1.10;;;10.70;99.90;;;;;;5013617;28;20053;-71
2022/07/28 00:18:31;;;;;;;2.05;0.80;;;10.60;99.90;;;;;;5030633;28;20050;-70
2022/07/28 00:20:57;;;;;;;2.70;1.60;;;10.60;99.90;;;;;;5031181;28;20026;-71
2022/07/28 00:23:22;;;;;;;1.15;0.82;;;10.60;99.90;;;;;;5030062;28;20041;-70
2022/07/28 00:25:48;;;;;;;1.67;1.00;;;10.60;99.90;;;;;;5028139;28;20048;-70
2022/07/28 00:28:13;;;;;;;1.83;1.20;;;10.60;99.90;;;;;;5030007;28;20391;-70
2022/07/28 00:30:39;;;;;;;1.42;0.90;;;10.50;99.90;;;;;;5029140;28;20118;-70
2022/07/28 00:33:04;;;;;;;2.42;1.13;;;10.50;99.90;;;;;;5030298;28;20041;-70
2022/07/28 00:35:30;;;;;;;1.52;1.00;;;10.50;99.90;;;;;;5027351;28;20037;-70
2022/07/28 00:37:55;;;;;;;1.60;0.90;;;10.50;99.90;;;;;;5047524;28;20135;-70
2022/07/28 00:40:21;;;;;;;1.95;1.00;;;10.50;99.90;;;;;;5052050;28;20056;-70
2022/07/28 00:42:47;;;;;;;1.33;0.80;;;10.50;99.90;;;;;;5052180;28;20036;-70
2022/07/28 00:45:12;;;;;;;1.90;0.98;;;10.40;99.90;;;;;;5049112;28;20040;-70
2022/07/28 00:47:38;;;;;;;2.20;0.80;;;10.40;99.90;;;;;;5051717;28;20074;-70
2022/07/28 00:50:04;;;;;;;0.80;0.80;;;10.40;99.90;;;;;;5069005;28;20035;-70
2022/07/28 00:52:31;;;;;;;1.23;0.95;;;10.40;99.90;;;;;;5052396;28;20037;-70
2022/07/28 00:54:57;;;;;;;1.00;0.80;;;10.40;99.90;;;;;;5051980;28;20483;-70
2022/07/28 00:57:23;;;;;;;1.10;1.00;;;10.40;99.90;;;;;;5052546;28;20135;-70
2022/07/28 00:59:48;;;;;;;2.83;0.90;;;10.40;99.90;;;;;;5067624;28;20077;-70
2022/07/28 01:02:14;;;;;;;1.23;0.65;;;10.40;99.90;;;;;;5050997;28;20068;-70
2022/07/28 01:04:40;;;;;;;2.47;1.48;;;10.30;99.90;;;;;;5051657;28;20072;-70
2022/07/28 01:07:31;;;;;;;2.40;1.00;;;10.30;99.90;;;;;;5050691;28;20078;-70
2022/07/28 01:10:08;;;;;;;1.80;1.00;;;10.30;99.90;;;;;;5049099;28;20067;-70
2022/07/28 01:13:05;;;;;;;1.50;1.05;;;10.30;99.90;;;;;;5047689;28;20095;-70
2022/07/28 01:15:39;;;;;;;1.30;1.20;;;10.30;99.90;;;;;;5047353;28;20118;-70
2022/07/28 01:18:17;;;;;;;2.70;1.05;;;10.30;99.90;;;;;;5051087;28;20123;-70
2022/07/28 01:20:53;;;;;;;2.67;0.90;;;10.30;99.90;;;;;;5051592;28;20127;-70
2022/07/28 01:23:42;;;;;;;2.08;1.38;;;10.30;99.90;;;;;;5070472;28;20393;-70
2022/07/28 01:26:17;;;;;;;1.45;0.95;;;10.30;99.90;;;;;;5068958;28;20040;-70
2022/07/28 01:28:43;;;;;;;2.05;1.10;;;10.30;99.90;;;;;;5052163;28;20590;-70
2022/07/28 01:31:14;;;;;;;1.85;0.93;;;10.20;99.90;;;;;;5035943;28;20040;-70
2022/07/28 01:33:46;;;;;;;1.98;1.10;;;10.20;99.90;;;;;;5047859;28;20086;-70
2022/07/28 01:36:24;;;;;;;1.38;0.98;;;10.20;99.90;;;;;;5051511;28;20047;-70
2022/07/28 01:38:50;;;;;;;2.13;1.30;;;10.20;99.90;;;;;;5050051;28;20132;-70
2022/07/28 01:41:22;;;;;;;2.33;0.80;;;10.10;99.90;;;;;;5052330;28;20071;-70
2022/07/28 01:43:57;;;;;;;2.22;1.00;;;10.10;99.90;;;;;;5049990;28;20044;-70
2022/07/28 01:46:24;;;;;;;2.92;1.20;;;10.10;99.90;;;;;;5051759;28;20115;-70
2022/07/28 01:48:50;;;;;;;2.47;1.40;;;10.10;99.90;;;;;;5053178;28;20054;-70
2022/07/28 01:51:18;;;;;;;1.58;1.25;;;10.10;99.90;;;;;;5055358;28;20557;-70
2022/07/28 01:53:46;;;;;;;2.80;1.00;;;10.10;99.90;;;;;;5052866;28;20028;-70
2022/07/28 01:56:14;;;;;;;2.47;1.40;;;10.10;99.90;;;;;;5055208;28;20055;-70
2022/07/28 01:58:42;;;;;;;2.45;1.17;;;10.10;99.90;;;;;;5055784;28;20043;-71
2022/07/28 02:01:10;;;;;;;2.42;1.35;;;10.10;99.90;;;;;;5039186;28;20052;-70
2022/07/28 02:03:38;;;;;;;1.10;1.00;;;10.10;99.90;;;;;;5073121;28;20044;-70
2022/07/28 02:06:05;;;;;;;1.17;1.08;;;10.10;99.90;;;;;;5053633;28;20048;-70
2022/07/28 02:08:32;;;;;;;2.15;1.20;;;10.10;99.90;;;;;;5061828;28;20524;-70
2022/07/28 02:13:45;;;;;;;2.03;1.00;;;10.10;99.90;;;;;;5063816;28;20128;-70
2022/07/28 02:16:12;;;;;;;1.15;0.90;;;10.00;99.90;;;;;;5055673;28;20040;-70
2022/07/28 02:18:39;;;;;;;1.08;0.95;;;10.00;99.90;;;;;;5053566;28;20044;-70
2022/07/28 02:21:05;;;;;;;1.02;0.98;;;10.00;99.90;;;;;;5056128;28;20083;-70
2022/07/28 02:23:32;;;;;;;1.40;1.00;;;10.00;99.90;;;;;;5055033;28;20400;-70
2022/07/28 02:26:01;;;;;;;0.85;0.85;;;10.00;99.90;;;;;;5053642;28;20118;-70
2022/07/28 02:28:27;;;;;;;1.83;1.20;;;10.00;99.90;;;;;;5054719;28;20067;-70
2022/07/28 02:31:11;;;;;;;1.85;1.20;;;10.00;99.90;;;;;;5055543;28;20049;-70
2022/07/28 02:33:40;;;;;;;1.40;1.20;;;10.00;99.90;;;;;;5069526;28;20066;-70
2022/07/28 02:36:12;;;;;;;1.20;1.10;;;10.00;99.90;;;;;;5054863;28;20040;-70
2022/07/28 02:38:44;;;;;;;1.30;1.20;;;9.90;99.90;;;;;;5049520;28;20109;-70
2022/07/28 02:41:16;;;;;;;2.55;1.20;;;9.90;99.90;;;;;;5034351;28;20139;-70
2022/07/28 02:43:43;;;;;;;;;;;9.90;99.90;;;;;;5039535;28;20033;-70
2022/07/28 02:46:13;;;;;;;1.58;1.10;;;9.90;99.90;;;;;;5052764;28;19943;-71
2022/07/28 02:48:40;;;;;;;1.20;1.10;;;9.90;99.90;;;;;;5052959;28;20094;-70
2022/07/28 02:51:07;;;;;;;1.20;0.88;;;9.80;99.90;;;;;;5051836;28;20048;-70
2022/07/28 02:53:33;;;;;;;1.13;0.93;;;9.80;99.90;;;;;;5049600;28;20040;-70
2022/07/28 02:56:00;;;;;;;0.73;0.68;;;9.80;99.90;;;;;;5051998;28;20067;-70
2022/07/28 02:58:28;;;;;;;1.77;1.35;;;9.80;99.90;;;;;;5051556;28;20041;-70
2022/07/28 03:00:55;;;;;;;1.17;0.93;;;9.80;99.90;;;;;;5052047;28;20045;-70
2022/07/28 03:03:22;;;;;;;1.48;1.08;;;9.70;99.90;;;;;;5035163;28;20045;-70
2022/07/28 03:05:48;;;;;;;1.20;1.10;;;9.70;99.90;;;;;;5052001;28;20045;-71
2022/07/28 03:08:15;;;;;;;2.05;1.20;;;9.70;99.90;;;;;;5049625;28;20131;-70
2022/07/28 03:10:40;;;;;;;2.00;1.20;;;9.70;99.90;;;;;;5040510;28;20081;-70
2022/07/28 03:13:06;;;;;;;1.45;1.35;;;9.60;99.90;;;;;;5033468;28;20134;-70
2022/07/28 03:15:34;;;;;;;2.30;1.42;;;9.50;99.90;;;;;;5038069;28;20032;-70
2022/07/28 03:18:01;;;;;;;1.83;1.70;;;9.50;99.90;;;;;;5052681;28;20482;-71
2022/07/28 03:20:27;;;;;;;2.25;2.05;;;9.50;99.90;;;;;;5051047;28;20090;-70
2022/07/28 03:22:52;;;;;;;2.88;2.00;;;9.50;99.90;;;;;;5051741;28;20053;-70
2022/07/28 03:25:42;;;;;;;2.78;1.80;;;9.50;99.90;;;;;;5046010;28;20037;-70
2022/07/28 03:28:11;;;;;;;2.10;1.90;;;9.40;99.90;;;;;;5039323;28;20045;-70
2022/07/28 03:30:45;;;;;;;7.22;1.83;;;9.40;99.90;;;;;;5046574;28;20033;-70
2022/07/28 03:33:11;;;;;;;1.40;1.30;;;9.40;99.90;;;;;;5039140;28;20045;-70
2022/07/28 03:35:42;;;;;;;1.83;1.58;;;9.30;99.90;;;;;;5052988;28;20044;-70
2022/07/28 03:38:12;;;;;;;1.92;1.80;;;9.20;99.90;;;;;;5049716;28;20052;-70
2022/07/28 03:40:39;;;;;;;1.70;1.50;;;9.30;99.90;;;;;;5051445;28;20052;-70
2022/07/28 03:43:08;;;;;;;3.72;1.30;;;9.30;99.90;;;;;;5045742;28;20069;-70
2022/07/28 03:45:35;;;;;;;2.20;1.35;;;9.20;99.90;;;;;;5039422;28;20052;-70
2022/07/28 03:48:00;;;;;;;2.78;1.25;;;9.20;99.90;;;;;;5033165;28;20049;-70
2022/07/28 03:50:30;;;;;;;2.75;1.13;;;9.20;99.90;;;;;;5050587;28;20045;-70
2022/07/28 03:52:58;;;;;;;1.17;1.00;;;9.00;99.90;;;;;;5051236;28;20041;-71
2022/07/28 03:55:25;;;;;;;1.38;1.08;;;9.10;99.90;;;;;;5051223;28;20041;-70
2022/07/28 03:57:50;;;;;;;1.73;1.30;;;9.10;99.90;;;;;;5050838;28;20833;-70
2022/07/28 04:00:17;;;;;;;1.67;1.30;;;9.10;99.90;;;;;;5048781;28;20037;-70
2022/07/28 04:02:46;;;;;;;3.45;1.38;;;9.20;99.90;;;;;;5039285;28;20041;-70
2022/07/28 04:05:13;;;;;;;2.25;1.17;;;9.20;99.90;;;;;;5050651;28;20094;-70
2022/07/28 04:07:40;;;;;;;1.55;1.10;;;9.20;99.90;;;;;;5050492;28;20091;-70
2022/07/28 04:10:07;;;;;;;2.72;1.83;;;9.20;99.90;;;;;;5049847;28;20044;-70
2022/07/28 04:12:56;;;;;;;1.40;1.30;;;9.20;99.90;;;;;;5050557;28;20037;-70
2022/07/28 04:15:23;;;;;;;1.80;1.60;;;9.20;99.90;;;;;;5032518;28;20041;-70
2022/07/28 04:17:51;;;;;;;1.60;1.50;;;9.30;99.90;;;;;;5038229;28;20483;-70
2022/07/28 04:20:17;;;;;;;1.52;1.40;;;9.40;99.90;;;;;;5050806;28;20065;-70
2022/07/28 04:22:44;;;;;;;1.70;1.60;;;9.40;99.90;;;;;;5023186;28;20052;-70
2022/07/28 04:25:11;;;;;;;1.40;1.30;;;9.50;99.90;;;;;;5045172;28;20041;-70
2022/07/28 04:27:37;;;;;;;2.10;1.80;;;9.50;99.90;;;;;;5049935;28;20041;-70
2022/07/28 04:30:05;;;;;;;2.33;1.67;;;9.60;99.90;;;;;;5049818;28;20076;-70
2022/07/28 04:32:30;;;;;;;2.08;1.88;;;9.70;99.90;;;;;;5047835;28;20041;-70
2022/07/28 04:34:56;;;;;;;2.08;1.88;;;9.80;99.90;;;;;;5036815;28;20464;-70
2022/07/28 04:37:21;;;;;;;2.17;1.85;;;9.80;99.90;;;;;;5013851;28;20057;-70
2022/07/28 04:39:48;;;;;;;1.83;1.70;;;9.90;99.90;;;;;;5030197;28;20060;-70
2022/07/28 04:42:15;;;;;;;2.78;1.60;;;9.90;99.90;;;;;;5029880;28;20055;-70
2022/07/28 04:44:41;;;;;;;1.95;1.80;;;10.00;99.90;;;;;;5030495;28;20037;-70
2022/07/28 04:47:08;;;;;;;2.28;2.03;;;10.10;99.90;;;;;;5031786;28;20432;-70
2022/07/28 04:49:33;;;;;;;4.20;2.05;;;10.10;99.90;;;;;;5028465;28;20398;-70
2022/07/28 04:51:59;;;;;;;3.08;2.22;;;10.20;99.90;;;;;;5029640;28;20046;-70
2022/07/28 04:54:25;;;;;;;23.77;3.95;;;10.30;99.90;;;;;;5030485;28;20044;-70
2022/07/28 04:56:51;;;;;;;2.60;2.40;;;10.30;99.90;;;;;;5013389;28;20041;-70
2022/07/28 04:59:17;;;;;;;3.42;2.38;;;10.30;99.90;;;;;;5030204;28;20179;-70
2022/07/28 05:01:43;;;;;;;3.08;2.38;;;10.40;99.90;;;;;;5028220;28;20041;-70
2022/07/28 05:04:09;;;;;;;2.20;1.95;;;10.50;99.90;;;;;;5029952;28;20043;-71
2022/07/28 05:06:34;;;;;;;2.50;2.30;;;10.50;99.90;;;;;;5029935;28;20041;-70
2022/07/28 05:09:00;;;;;;;3.15;1.80;;;10.60;99.90;;;;;;5031140;28;20037;-71
2022/07/28 05:11:26;;;;;;;4.00;1.63;;;10.70;99.90;;;;;;5029405;28;20053;-70
2022/07/28 05:13:52;;;;;;;2.70;1.73;;;10.80;99.90;;;;;;5029255;28;20119;-70
2022/07/28 05:16:18;;;;;;;3.53;1.85;;;10.80;99.90;;;;;;5027427;28;20518;-70
2022/07/28 05:18:44;;;;;;;3.13;1.98;;;10.90;99.90;;;;;;5028817;28;20046;-70
2022/07/28 05:21:10;;;;;;;2.05;1.85;;;11.00;99.90;;;;;;5027696;28;20518;-70
2022/07/28 05:23:36;;;;;;;4.47;2.15;;;11.10;99.90;;;;;;5029220;28;20100;-70
2022/07/28 05:26:03;;;;;;;2.42;2.22;;;11.20;99.90;;;;;;5031420;28;20037;-70
2022/07/28 05:28:29;;;;;;;3.90;2.15;;;11.30;99.90;;;;;;5032471;28;20053;-70
2022/07/28 05:30:55;;;;;;;2.00;1.90;;;11.40;99.90;;;;;;5032956;28;20121;-71
2022/07/28 05:33:20;;;;;;;3.38;2.13;;;11.50;99.90;;;;;;5032368;28;20446;-70
2022/07/28 05:35:53;;;;;;;2.35;2.00;;;11.60;99.90;;;;;;5032408;28;20178;-70
2022/07/28 05:38:19;;;;;;;2.45;2.25;;;11.70;99.90;;;;;;5029159;28;20056;-70
2022/07/28 05:40:47;;;;;;;2.42;2.20;;;11.80;99.90;;;;;;5053536;28;20048;-70
2022/07/28 05:43:12;;;;;;;4.00;1.98;;;11.90;99.90;;;;;;5053034;28;20102;-70
2022/07/28 05:45:38;;;;;;;3.17;1.77;;;11.90;99.90;;;;;;5054860;28;20040;-70
2022/07/28 05:48:04;;;;;;;2.55;2.00;;;12.00;99.90;;;;;;5053908;28;20041;-70
2022/07/28 05:50:30;;;;;;;3.10;2.28;;;12.10;99.90;;;;;;5050390;28;20455;-70
2022/07/28 05:52:55;;;;;;;3.67;2.25;;;12.20;99.90;;;;;;5049338;23;20103;-70
2022/07/28 05:55:21;;;;;;;3.20;2.03;;;12.30;99.90;;;;;;5029488;28;20103;-70
2022/07/28 05:57:47;;;;;;;2.45;2.20;;;12.40;99.90;;;;;;5018623;28;20049;-70
2022/07/28 06:00:16;;;;;;;3.13;1.75;;;12.50;99.90;;;;;;5012571;28;20059;-70
2022/07/28 06:02:44;;;;;;;2.40;2.20;;;12.40;99.90;;;;;;5032192;28;20078;-70
2022/07/28 06:05:10;;;;;;;4.43;2.55;;;12.40;99.90;;;;;;5036847;28;20051;-70
2022/07/28 06:07:36;;;;;;;3.25;2.20;;;12.40;99.90;;;;;;5036934;28;20041;-70
2022/07/28 06:10:02;;;;;;;4.10;2.20;;;12.50;99.90;;;;;;5036279;28;20489;-70
2022/07/28 06:12:28;;;;;;;2.33;2.13;;;12.60;99.90;;;;;;5034810;28;20044;-70
2022/07/28 06:14:53;;;;;;;2.10;1.90;;;12.70;99.90;;;;;;5015924;28;20447;-71
2022/07/28 06:17:19;;;;;;;3.33;2.05;;;12.60;99.90;;;;;;5016694;28;20399;-70
2022/07/28 06:19:45;;;;;;;3.67;2.08;;;12.70;99.90;;;;;;5027679;28;20073;-70
2022/07/28 06:22:10;;;;;;;2.13;1.73;;;12.80;99.90;;;;;;5033291;28;20505;-70
2022/07/28 06:24:36;;;;;;;3.30;2.10;;;12.90;99.90;;;;;;5032865;28;20098;-70
2022/07/28 06:27:02;;;;;;;4.47;2.35;;;13.10;99.90;;;;;;5023655;28;20049;-70
2022/07/28 06:29:31;;;;;;;3.08;2.13;;;13.30;99.90;;;;;;5013680;28;20121;-70
2022/07/28 06:31:56;;;;;;;2.53;2.08;;;13.60;99.90;;;;;;5033556;28;20099;-70
2022/07/28 06:34:22;;;;;;;2.22;1.70;;;13.90;99.90;;;;;;5015340;28;20045;-70
2022/07/28 06:36:49;;;;;;;4.70;1.95;;;14.20;99.90;;;;;;5006877;28;20577;-70
2022/07/28 06:39:14;;;;;;;3.33;1.98;;;14.40;99.90;;;;;;5011868;28;20091;-70
2022/07/28 06:41:43;;;;;;;2.75;1.70;;;14.60;99.90;;;;;;5018276;28;20104;-70
2022/07/28 06:44:10;;;;;;;2.90;1.98;;;14.70;99.90;;;;;;5019598;28;20048;-70
2022/07/28 06:46:35;;;;;;;2.95;1.98;;;14.90;99.90;;;;;;5003892;28;20052;-70
2022/07/28 06:49:04;;;;;;;2.65;1.73;;;14.90;99.90;;;;;;5001032;28;20038;-71
2022/07/28 06:51:30;;;;;;;5.75;1.80;;;15.00;99.90;;;;;;5005521;28;20577;-71
2022/07/28 06:53:57;;;;;;;3.80;1.90;;;15.00;99.90;;;;;;5004938;28;20248;-70
2022/07/28 06:56:23;;;;;;;4.00;1.80;;;15.10;99.90;;;;;;4996578;28;20142;-70
2022/07/28 06:58:48;;;;;;;4.05;1.95;;;15.20;99.90;;;;;;5004145;28;20077;-70
2022/07/28 07:01:15;;;;;;;3.25;2.17;;;15.20;99.90;;;;;;5015070;28;20044;-71
2022/07/28 07:03:41;;;;;;;5.15;1.90;;;15.10;99.90;;;;;;5006170;28;20491;-70
2022/07/28 07:06:07;;;;;;;2.55;1.73;;;15.10;99.90;;;;;;5014958;28;20056;-70
2022/07/28 07:08:33;;;;;;;3.53;1.75;;;15.20;99.90;;;;;;5015837;28;20029;-71
2022/07/28 07:10:59;;;;;;;3.53;1.50;;;15.30;99.90;;;;;;5028958;28;20037;-71
2022/07/28 07:13:25;;;;;;;4.43;1.83;;;15.30;99.90;;;;;;5001794;28;20078;-71
2022/07/28 07:15:51;;;;;;;3.65;1.13;;;15.40;99.90;;;;;;5013218;28;20534;-71
2022/07/28 07:18:16;;;;;;;3.90;1.35;;;15.40;99.90;;;;;;4995935;28;20361;-70
2022/07/28 07:20:42;;;;;;;4.82;1.60;;;15.50;99.90;;;;;;5001806;28;20487;-70
2022/07/28 07:23:08;;;;;;;4.05;1.50;;;15.60;99.90;;;;;;5020381;28;20045;-71
2022/07/28 07:25:33;;;;;;;3.85;1.20;;;15.70;99.90;;;;;;5030149;28;20037;-70
2022/07/28 07:27:59;;;;;;;3.83;1.35;;;15.70;99.90;;;;;;4995237;28;20124;-70
2022/07/28 07:30:24;;;;;;;3.40;1.10;;;15.80;99.90;;;;;;5009431;28;20124;-70
2022/07/28 07:32:50;;;;;;;2.35;1.20;;;15.90;99.90;;;;;;5020852;28;20064;-70
2022/07/28 07:35:16;;;;;;;4.72;1.40;;;15.80;99.90;;;;;;4998143;28;20786;-70
2022/07/28 07:37:42;;;;;;;3.08;1.40;;;15.90;99.90;;;;;;4993564;28;20050;-70
2022/07/28 07:40:08;;;;;;;2.53;1.20;;;15.90;99.90;;;;;;5013677;28;20111;-70
2022/07/28 07:42:33;;;;;;;3.97;1.17;;;16.00;99.90;;;;;;5014241;28;20045;-70
2022/07/28 07:44:59;;;;;;;2.95;0.90;;;16.00;99.90;;;;;;5001085;28;20030;-70
2022/07/28 07:47:25;;;;;;;5.28;1.15;;;16.10;99.90;;;;;;5002549;28;20532;-70
2022/07/28 07:49:50;;;;;;;2.17;1.17;;;16.10;99.90;;;;;;5015397;28;20050;-70
2022/07/28 07:52:16;;;;;;;2.03;1.10;;;16.10;99.90;;;;;;4996711;28;20042;-70
2022/07/28 07:54:42;;;;;;;2.47;1.20;;;16.10;99.90;;;;;;4993756;28;20096;-70
2022/07/28 07:57:08;;;;;;;2.70;1.30;;;16.00;99.90;;;;;;4987132;28;20034;-71
2022/07/28 07:59:34;;;;;;;4.93;1.40;;;16.10;99.90;;;;;;5012363;28;20073;-71
2022/07/28 08:02:00;;;;;;;4.32;1.63;;;16.00;99.90;;;;;;5011836;28;20041;-70
2022/07/28 08:04:26;;;;;;;3.28;1.83;;;16.00;99.90;;;;;;5014724;28;20037;-70
2022/07/28 08:06:51;;;;;;;4.05;1.70;;;15.90;99.90;;;;;;5006897;28;20046;-70
2022/07/28 08:09:17;;;;;;;3.15;1.70;;;15.90;99.90;;;;;;5027613;28;20171;-70
2022/07/28 08:11:43;;;;;;;2.92;1.27;;;15.50;99.90;;;;;;5046931;28;20088;-70
2022/07/28 08:14:09;;;;;;;5.97;1.70;;;15.60;99.90;;;;;;4996422;28;20034;-70
2022/07/28 08:16:34;;;;;;;2.65;1.67;;;15.50;99.90;;;;;;5020622;28;20071;-70
2022/07/28 08:19:00;;;;;;;10.60;1.90;;;15.50;99.90;;;;;;5011583;28;20589;-70
2022/07/28 08:21:26;;;;;;;3.63;1.70;;;15.60;99.90;;;;;;5028998;28;20061;-70
2022/07/28 08:23:54;;;;;;;3.33;1.10;;;15.70;99.90;;;;;;4996264;28;20050;-70
2022/07/28 08:26:21;;;;;;;3.97;1.50;;;15.90;99.90;;;;;;5017600;28;20050;-70
2022/07/28 08:28:47;;;;;;;2.75;1.35;;;16.10;99.90;;;;;;5009987;28;20041;-70
2022/07/28 08:31:15;;;;;;;3.50;1.65;;;16.20;99.90;;;;;;5014069;28;20041;-70
2022/07/28 08:33:41;;;;;;;6.03;1.50;;;16.40;99.90;;;;;;5013942;28;20510;-70
2022/07/28 08:36:07;;;;;;;3.50;1.30;;;16.60;99.90;;;;;;5027989;28;20403;-70
2022/07/28 08:38:32;;;;;;;3.67;1.50;;;16.90;99.90;;;;;;5008041;28;20045;-70
2022/07/28 08:41:02;;;;;;;4.47;1.33;;;17.00;99.90;;;;;;5030579;28;20041;-70
2022/07/28 08:43:38;;;;;;;3.13;1.27;;;17.20;99.90;;;;;;5014362;28;20061;-70
2022/07/28 08:46:05;;;;;;;4.22;1.42;;;17.30;99.90;;;;;;5012555;28;20144;-70
2022/07/28 08:48:33;;;;;;;4.47;1.33;;;17.30;99.90;;;;;;5000845;28;20387;-70
2022/07/28 08:51:08;;;;;;;4.40;1.45;;;17.50;99.90;;;;;;5028457;28;20096;-70
2022/07/28 08:53:36;;;;;;;3.50;1.10;;;17.60;99.90;;;;;;5024152;28;20688;-67
2022/07/28 08:56:14;;;;;;;3.22;1.23;;;18.10;99.90;;;;;;4999934;28;20045;-70
2022/07/28 08:58:40;;;;;;;3.40;1.00;;;;;;;;;;5029715;28;20041;-70
2022/07/28 09:01:09;;;;;;;3.38;1.13;;;19.10;98.50;;;;;;5011988;28;20395;-70
2022/07/28 09:03:37;;;;;;;2.97;1.00;;;19.30;98.00;;;;;;5013071;28;20042;-70
2022/07/28 09:06:03;;;;;;;3.05;1.02;;;19.50;98.20;;;;;;5026416;28;20590;-70
2022/07/28 09:08:29;;;;;;;3.72;1.15;;;19.90;96.30;;;;;;5026228;28;20363;-70
2022/07/28 09:10:54;;;;;;;6.40;1.70;;;19.80;95.80;;;;;;5005439;28;20052;-70
2022/07/28 09:13:20;;;;;;;3.40;1.30;;;20.20;95.30;;;;;;5029484;28;20040;-70
2022/07/28 09:15:46;;;;;;;1.50;1.00;;;20.40;94.30;;;;;;5012807;28;20048;-70
2022/07/28 09:18:18;;;;;;;2.45;0.75;;;19.80;93.60;;;;;;5031203;28;20368;-70
2022/07/28 09:20:44;;;;;;;1.83;0.80;;;19.50;93.60;;;;;;5012218;28;20057;-70
2022/07/28 09:23:11;;;;;;;2.58;0.80;;;20.00;94.40;;;;;;4993831;28;20065;-70
2022/07/28 09:25:37;;;;;;;2.72;0.93;;;20.20;93.50;;;;;;5011994;28;20050;-70
2022/07/28 09:28:12;;;;;;;2.15;0.60;;;20.50;93.10;;;;;;4985017;28;20041;-70
2022/07/28 09:30:41;;;;;;;2.65;0.80;;;20.70;91.70;;;;;;5008086;28;20087;-70
2022/07/28 09:33:22;;;;;;;1.77;0.85;;;20.90;92.00;;;;;;5012722;28;20050;-70
2022/07/28 09:35:50;;;;;;;2.13;0.90;;;21.00;91.90;;;;;;5005718;28;20049;-71
2022/07/28 09:38:17;;;;;;;3.65;0.82;;;21.20;91.80;;;;;;5016050;28;20420;-70
2022/07/28 09:41:02;;;;;;;3.30;1.38;;;20.80;91.70;;;;;;5007280;28;20060;-70
2022/07/28 09:43:35;;;;;;;4.47;1.40;;;21.00;91.80;;;;;;5020869;28;20118;-70
2022/07/28 09:46:06;;;;;;;2.50;0.90;;;21.10;91.30;;;;;;4998930;28;20041;-70
2022/07/28 09:48:32;;;;;;;2.08;0.80;;;21.00;91.80;;;;;;5024875;28;20133;-70
2022/07/28 09:51:10;;;;;;;1.77;0.90;;;21.10;91.60;;;;;;5022472;28;20037;-68
2022/07/28 09:53:35;;;;;;;2.50;0.88;;;20.80;90.30;;;;;;4999438;28;20464;-68
2022/07/28 09:56:01;;;;;;;2.63;1.08;;;20.60;91.50;;;;;;5023045;28;20081;-67
2022/07/28 09:58:28;;;;;;;2.10;0.85;;;20.80;91.90;;;;;;5008696;28;20041;-67
2022/07/28 10:01:08;;;;;;;3.40;1.35;;;20.20;90.90;;;;;;5027057;28;20049;-68
2022/07/28 10:03:39;;;;;;;2.60;0.90;;;20.50;91.40;;;;;;5022720;28;20037;-68
2022/07/28 10:06:10;;;;;;;3.97;1.10;;;20.60;91.70;;;;;;5011759;28;20052;-68
2022/07/28 10:08:47;;;;;;;2.37;0.97;;;20.80;91.00;;;;;;5001463;28;20534;-68
2022/07/28 10:11:16;;;;;;;4.72;1.02;;;20.80;90.80;;;;;;5022938;28;20327;-68
2022/07/28 10:13:52;;;;;;;5.50;1.17;;;20.40;91.60;;;;;;5027080;28;21097;-68
2022/07/28 10:16:19;;;;;;;2.80;1.33;;;20.00;91.90;;;;;;5028640;28;20041;-68
2022/07/28 10:18:46;;;;;;;2.75;0.90;;;19.60;92.40;;;;;;5008092;28;20057;-68
2022/07/28 10:21:14;;;;;;;3.00;1.15;;;19.60;93.00;;;;;;5013952;28;20412;-67
2022/07/28 10:23:48;;;;;;;3.28;1.02;;;19.80;92.50;;;;;;5031615;28;20060;-67
2022/07/28 10:26:16;;;;;;;4.55;1.02;;;19.80;92.90;;;;;;5043772;28;20071;-67
2022/07/28 10:28:49;;;;;;;2.92;0.90;;;19.50;92.80;;;;;;5014925;28;20042;-67
2022/07/28 10:31:23;;;;;;;2.85;1.00;;;19.20;93.20;;;;;;5015665;28;20643;-67
2022/07/28 10:33:51;;;;;;;2.05;0.95;;;19.10;93.70;;;;;;5012177;28;20057;-70
2022/07/28 10:36:22;;;;;;;3.42;1.40;;;19.20;93.50;;;;;;5015881;28;20060;-68
2022/07/28 10:38:50;;;;;;;4.13;1.30;;;19.30;93.50;;;;;;5015560;28;20052;-68
2022/07/28 10:41:19;;;;;;;5.65;1.60;;;19.40;93.50;;;;;;5009368;28;20430;-68
2022/07/28 10:43:46;;;;;;;1.92;1.38;;;19.50;93.80;;;;;;5008233;28;20499;-68
2022/07/28 10:46:13;;;;;;;3.25;1.08;;;19.60;93.80;;;;;;5026824;28;20048;-68
2022/07/28 10:48:39;;;;;;;3.50;1.23;;;19.70;92.70;;;;;;5027948;28;20100;-69
2022/07/28 10:51:05;;;;;;;3.63;1.00;;;19.80;93.00;;;;;;5028487;28;20515;-68
2022/07/28 10:53:49;;;;;;;2.25;1.00;;;19.90;92.60;;;;;;5029614;28;20053;-68
2022/07/28 10:56:21;;;;;;;1.27;0.98;;;19.90;90.70;;;;;;5007273;28;20411;-68
2022/07/28 10:59:01;;;;;;;1.80;0.90;;;20.00;91.90;;;;;;5010166;28;20096;-68
2022/07/28 11:01:38;;;;;;;2.95;0.88;;;19.90;91.10;;;;;;5013572;28;20052;-68
2022/07/28 11:04:07;;;;;;;3.08;1.00;;;19.90;90.50;;;;;;5031188;28;20084;-68
2022/07/28 11:06:35;;;;;;;2.22;1.00;;;20.10;91.70;;;;;;5015964;28;20045;-68
2022/07/28 11:09:16;;;;;;;1.58;0.80;;;20.30;91.60;;;;;;5031751;28;20789;-68
2022/07/28 11:11:50;;;;;;;2.13;1.00;;;20.50;91.60;;;;;;5028879;28;20051;-68
2022/07/28 11:14:24;;;;;;;3.80;1.00;;;20.70;91.70;;;;;;5013579;28;20124;-68
2022/07/28 11:16:59;;;;;;;3.03;1.10;;;20.60;90.80;;;;;;5013567;28;20124;-68
2022/07/28 11:19:29;;;;;;;1.80;0.68;;;20.80;91.10;;;;;;5010105;28;20375;-68
2022/07/28 11:22:13;;;;;;;2.78;1.00;;;20.70;91.00;;;;;;5024712;28;20426;-68
2022/07/28 11:25:00;;;;;;;2.05;0.80;;;20.50;91.20;;;;;;5013184;28;20045;-68
2022/07/28 11:27:41;;;;;;;1.40;0.98;;;20.50;91.00;;;;;;5027741;28;20554;-68
2022/07/28 11:30:31;;;;;;;3.70;1.00;;;20.70;89.60;;;;;;5005838;28;20053;-68
2022/07/28 11:32:58;;;;;;;2.60;0.82;;;20.50;89.10;;;;;;5031002;28;20045;-67
2022/07/28 11:35:26;;;;;;;5.18;1.00;;;20.80;90.60;;;;;;5021123;28;20383;-68
2022/07/28 11:38:00;;;;;;;4.05;1.00;;;20.90;90.40;;;;;;4998504;28;20468;-68
2022/07/28 11:40:36;;;;;;;1.90;0.70;;;21.40;90.00;;;;;;5006390;28;20156;-68
2022/07/28 11:43:20;;;;;;;1.80;0.73;;;21.50;89.20;;;;;;5018580;28;20049;-69
2022/07/28 11:45:46;;;;;;;2.28;0.63;;;22.00;88.00;;;;;;5017901;28;20044;-68
2022/07/28 11:48:24;;;;;;;2.65;0.90;;;22.10;87.50;;;;;;5011431;28;20045;-68
2022/07/28 11:51:01;;;;;;;2.13;0.70;;;21.70;85.90;;;;;;5029935;28;20095;-68
2022/07/28 11:53:36;;;;;;;2.25;0.98;;;22.00;87.30;;;;;;4996244;28;20247;-68
2022/07/28 11:56:03;;;;;;;2.15;0.85;;;22.00;84.80;;;;;;5027089;28;20061;-68
2022/07/28 11:58:29;;;;;;;1.27;0.70;;;21.80;86.60;;;;;;5003463;28;20037;-68
2022/07/28 12:01:14;;;;;;;2.42;0.70;;;22.10;87.20;;;;;;5014122;28;20506;-68
2022/07/28 12:03:41;;;;;;;1.65;0.80;;;21.90;85.10;;;;;;5023817;28;20053;-68
2022/07/28 12:06:08;;;;;;;3.75;1.00;;;22.00;85.40;;;;;;4991564;28;20041;-68
2022/07/28 12:08:55;;;;;;;1.83;0.70;;;22.00;84.90;;;;;;5029572;28;20038;-68
2022/07/28 12:11:23;;;;;;;1.00;0.63;;;22.00;83.80;;;;;;5012672;28;20041;-68
2022/07/28 12:14:04;;;;;;;1.38;0.80;;;22.10;84.80;;;;;;5025451;28;20041;-68
2022/07/28 12:16:31;;;;;;;2.33;0.60;;;22.30;83.80;;;;;;5030995;28;20029;-68
2022/07/28 12:18:58;;;;;;;2.45;0.80;;;22.40;84.60;;;;;;5032347;28;20037;-68
2022/07/28 12:21:42;;;;;;;2.92;0.95;;;22.40;84.60;;;;;;5008515;28;20080;-68
2022/07/28 12:24:13;;;;;;;1.90;0.98;;;21.80;83.90;;;;;;5009902;28;20066;-68
2022/07/28 12:26:40;;;;;;;3.07;1.10;;;21.70;85.30;;;;;;5004979;28;20103;-68
2022/07/28 12:29:06;;;;;;;2.40;1.05;;;21.50;86.50;;;;;;5013479;28;20037;-68
2022/07/28 12:31:32;;;;;;;2.55;1.13;;;21.60;86.60;;;;;;5009068;28;20053;-68
2022/07/28 12:34:10;;;;;;;1.73;1.00;;;21.70;85.50;;;;;;5011358;28;20426;-68
2022/07/28 12:36:37;;;;;;;2.38;1.15;;;21.70;84.20;;;;;;5029671;28;20045;-68
2022/07/28 12:39:05;;;;;;;2.00;1.02;;;21.50;84.60;;;;;;5007269;28;20548;-68
2022/07/28 12:41:32;;;;;;;3.58;1.42;;;21.90;85.50;;;;;;5008025;28;20091;-68
2022/07/28 12:43:59;;;;;;;2.17;1.40;;;21.80;84.50;;;;;;5007885;28;20049;-68
2022/07/28 12:46:27;;;;;;;1.55;0.80;;;21.90;84.00;;;;;;5008936;28;20025;-68
2022/07/28 12:48:56;;;;;;;1.60;0.80;;;21.40;84.00;;;;;;4999675;28;20045;-68
2022/07/28 12:51:40;;;;;;;1.50;0.80;;;21.40;83.40;;;;;;5010679;28;20068;-68
2022/07/28 12:54:13;;;;;;;3.40;0.90;;;21.10;84.60;;;;;;5030276;28;20041;-68
2022/07/28 12:56:46;;;;;;;1.50;0.80;;;21.20;84.50;;;;;;5029366;28;20042;-68
2022/07/28 12:59:13;;;;;;;2.35;0.80;;;21.20;85.20;;;;;;5010910;28;20068;-68